sensor_id;sensor_type;location;lat;lon;timestamp;P1;durP1;ratioP1;P2;durP2;ratioP2
15102;SDS011;7652;53.584;9.998;2022-12-18T00:01:56;10.30;;;5.90;;
15102;SDS011;7652;53.584;9.998;2022-12-18T00:05:02;8.80;;;6.53;;
15102;SDS011;7652;53.584;9.998;2022-12-18T00:08:05;12.00;;;6.47;;
15102;SDS011;7652;53.584;9.998;2022-12-18T00:11:11;11.13;;;6.60;;
15102;SDS011;7652;53.584;9.998;2022-12-18T00:14:15;11.70;;;6.17;;
15102;SDS011;7652;53.584;9.998;2022-12-18T00:17:18;12.23;;;6.80;;
15102;SDS011;7652;53.584;9.998;2022-12-18T00:20:23;13.27;;;6.77;;
15102;SDS011;7652;53.584;9.998;2022-12-18T00:23:27;12.43;;;6.80;;
15102;SDS011;7652;53.584;9.998;2022-12-18T00:26:30;12.23;;;6.60;;
15102;SDS011;7652;53.584;9.998;2022-12-18T00:29:35;11.30;;;6.97;;
15102;SDS011;7652;53.584;9.998;2022-12-18T00:32:38;11.93;;;6.93;;
15102;SDS011;7652;53.584;9.998;2022-12-18T00:35:42;9.63;;;6.10;;
15102;SDS011;7652;53.584;9.998;2022-12-18T00:38:45;8.53;;;6.00;;
15102;SDS011;7652;53.584;9.998;2022-12-18T00:41:49;12.10;;;6.50;;
15102;SDS011;7652;53.584;9.998;2022-12-18T00:45:10;10.37;;;5.63;;
15102;SDS011;7652;53.584;9.998;2022-12-18T00:48:13;9.10;;;5.73;;
15102;SDS011;7652;53.584;9.998;2022-12-18T00:51:18;11.23;;;6.10;;
15102;SDS011;7652;53.584;9.998;2022-12-18T00:54:21;8.57;;;5.70;;
15102;SDS011;7652;53.584;9.998;2022-12-18T00:57:24;8.53;;;5.20;;
15102;SDS011;7652;53.584;9.998;2022-12-18T01:00:27;8.43;;;6.07;;
15102;SDS011;7652;53.584;9.998;2022-12-18T01:03:30;9.00;;;5.57;;
15102;SDS011;7652;53.584;9.998;2022-12-18T01:06:34;9.13;;;5.70;;
15102;SDS011;7652;53.584;9.998;2022-12-18T01:09:37;9.10;;;6.20;;
15102;SDS011;7652;53.584;9.998;2022-12-18T01:12:40;12.37;;;5.77;;
15102;SDS011;7652;53.584;9.998;2022-12-18T01:15:47;9.77;;;5.50;;
15102;SDS011;7652;53.584;9.998;2022-12-18T01:18:51;8.73;;;5.60;;
15102;SDS011;7652;53.584;9.998;2022-12-18T01:21:57;9.30;;;6.10;;
15102;SDS011;7652;53.584;9.998;2022-12-18T01:25:00;7.63;;;4.83;;
15102;SDS011;7652;53.584;9.998;2022-12-18T01:28:05;12.67;;;5.83;;
15102;SDS011;7652;53.584;9.998;2022-12-18T01:31:15;10.93;;;6.07;;
15102;SDS011;7652;53.584;9.998;2022-12-18T01:34:20;11.33;;;6.00;;
15102;SDS011;7652;53.584;9.998;2022-12-18T01:37:25;5.67;;;4.77;;
15102;SDS011;7652;53.584;9.998;2022-12-18T01:40:28;9.40;;;5.30;;
15102;SDS011;7652;53.584;9.998;2022-12-18T01:43:41;10.70;;;6.03;;
15102;SDS011;7652;53.584;9.998;2022-12-18T01:46:48;11.07;;;6.20;;
15102;SDS011;7652;53.584;9.998;2022-12-18T01:49:51;10.07;;;6.53;;
15102;SDS011;7652;53.584;9.998;2022-12-18T01:52:58;10.60;;;5.77;;
15102;SDS011;7652;53.584;9.998;2022-12-18T01:56:06;12.83;;;6.33;;
15102;SDS011;7652;53.584;9.998;2022-12-18T01:59:10;9.43;;;5.77;;
15102;SDS011;7652;53.584;9.998;2022-12-18T02:02:13;11.37;;;6.00;;
15102;SDS011;7652;53.584;9.998;2022-12-18T02:05:19;7.57;;;5.67;;
15102;SDS011;7652;53.584;9.998;2022-12-18T02:08:31;9.57;;;5.17;;
15102;SDS011;7652;53.584;9.998;2022-12-18T02:11:39;10.50;;;5.53;;
15102;SDS011;7652;53.584;9.998;2022-12-18T02:14:53;10.27;;;5.60;;
15102;SDS011;7652;53.584;9.998;2022-12-18T02:18:03;8.50;;;5.90;;
15102;SDS011;7652;53.584;9.998;2022-12-18T02:21:11;10.00;;;6.00;;
15102;SDS011;7652;53.584;9.998;2022-12-18T02:24:27;8.87;;;5.73;;
15102;SDS011;7652;53.584;9.998;2022-12-18T02:27:34;8.87;;;4.93;;
15102;SDS011;7652;53.584;9.998;2022-12-18T02:30:39;9.80;;;5.50;;
15102;SDS011;7652;53.584;9.998;2022-12-18T02:33:44;7.37;;;5.23;;
15102;SDS011;7652;53.584;9.998;2022-12-18T02:36:48;10.37;;;5.30;;
15102;SDS011;7652;53.584;9.998;2022-12-18T02:39:53;8.17;;;4.90;;
15102;SDS011;7652;53.584;9.998;2022-12-18T02:43:06;11.20;;;5.70;;
15102;SDS011;7652;53.584;9.998;2022-12-18T02:46:22;7.07;;;5.37;;
15102;SDS011;7652;53.584;9.998;2022-12-18T02:49:32;12.80;;;6.53;;
15102;SDS011;7652;53.584;9.998;2022-12-18T02:52:45;7.03;;;5.30;;
15102;SDS011;7652;53.584;9.998;2022-12-18T02:55:59;10.37;;;5.13;;
15102;SDS011;7652;53.584;9.998;2022-12-18T02:59:08;9.00;;;4.77;;
15102;SDS011;7652;53.584;9.998;2022-12-18T03:02:17;8.50;;;5.63;;
15102;SDS011;7652;53.584;9.998;2022-12-18T03:05:27;9.50;;;5.30;;
15102;SDS011;7652;53.584;9.998;2022-12-18T03:08:34;9.33;;;5.23;;
15102;SDS011;7652;53.584;9.998;2022-12-18T03:11:42;8.90;;;6.07;;
15102;SDS011;7652;53.584;9.998;2022-12-18T03:15:08;8.20;;;4.93;;
15102;SDS011;7652;53.584;9.998;2022-12-18T03:18:19;9.30;;;5.57;;
15102;SDS011;7652;53.584;9.998;2022-12-18T03:21:26;10.97;;;5.03;;
15102;SDS011;7652;53.584;9.998;2022-12-18T03:24:31;6.33;;;4.53;;
15102;SDS011;7652;53.584;9.998;2022-12-18T03:27:40;6.87;;;4.80;;
15102;SDS011;7652;53.584;9.998;2022-12-18T03:30:49;6.80;;;4.80;;
15102;SDS011;7652;53.584;9.998;2022-12-18T03:33:57;7.57;;;5.30;;
15102;SDS011;7652;53.584;9.998;2022-12-18T03:37:02;11.03;;;5.80;;
15102;SDS011;7652;53.584;9.998;2022-12-18T03:40:05;7.37;;;4.97;;
15102;SDS011;7652;53.584;9.998;2022-12-18T03:43:10;6.03;;;4.57;;
15102;SDS011;7652;53.584;9.998;2022-12-18T03:46:23;9.33;;;5.33;;
15102;SDS011;7652;53.584;9.998;2022-12-18T03:49:33;7.67;;;5.40;;
15102;SDS011;7652;53.584;9.998;2022-12-18T03:52:40;10.17;;;5.33;;
15102;SDS011;7652;53.584;9.998;2022-12-18T03:55:49;11.13;;;5.67;;
15102;SDS011;7652;53.584;9.998;2022-12-18T03:58:54;10.07;;;5.67;;
15102;SDS011;7652;53.584;9.998;2022-12-18T04:01:59;7.43;;;4.50;;
15102;SDS011;7652;53.584;9.998;2022-12-18T04:05:06;6.87;;;5.13;;
15102;SDS011;7652;53.584;9.998;2022-12-18T04:08:11;10.97;;;5.13;;
15102;SDS011;7652;53.584;9.998;2022-12-18T04:11:14;7.10;;;5.10;;
15102;SDS011;7652;53.584;9.998;2022-12-18T04:14:18;7.63;;;4.93;;
15102;SDS011;7652;53.584;9.998;2022-12-18T04:17:23;8.40;;;4.80;;
15102;SDS011;7652;53.584;9.998;2022-12-18T04:20:26;7.10;;;5.17;;
15102;SDS011;7652;53.584;9.998;2022-12-18T04:23:29;8.73;;;5.27;;
15102;SDS011;7652;53.584;9.998;2022-12-18T04:26:32;6.83;;;4.53;;
15102;SDS011;7652;53.584;9.998;2022-12-18T04:29:35;7.80;;;5.10;;
15102;SDS011;7652;53.584;9.998;2022-12-18T04:32:40;11.80;;;5.37;;
15102;SDS011;7652;53.584;9.998;2022-12-18T04:35:48;7.47;;;4.67;;
15102;SDS011;7652;53.584;9.998;2022-12-18T04:38:51;8.17;;;4.87;;
15102;SDS011;7652;53.584;9.998;2022-12-18T04:41:54;9.73;;;4.70;;
15102;SDS011;7652;53.584;9.998;2022-12-18T04:44:57;7.37;;;4.87;;
15102;SDS011;7652;53.584;9.998;2022-12-18T04:48:02;6.63;;;4.80;;
15102;SDS011;7652;53.584;9.998;2022-12-18T04:51:06;8.70;;;4.60;;
15102;SDS011;7652;53.584;9.998;2022-12-18T04:54:09;8.37;;;5.60;;
15102;SDS011;7652;53.584;9.998;2022-12-18T04:57:12;7.30;;;4.37;;
15102;SDS011;7652;53.584;9.998;2022-12-18T05:00:15;9.87;;;5.40;;
15102;SDS011;7652;53.584;9.998;2022-12-18T05:03:20;11.27;;;5.20;;
15102;SDS011;7652;53.584;9.998;2022-12-18T05:06:23;5.90;;;4.33;;
15102;SDS011;7652;53.584;9.998;2022-12-18T05:09:26;8.30;;;5.20;;
15102;SDS011;7652;53.584;9.998;2022-12-18T05:12:30;6.00;;;4.63;;
15102;SDS011;7652;53.584;9.998;2022-12-18T05:15:33;10.40;;;5.40;;
15102;SDS011;7652;53.584;9.998;2022-12-18T05:18:38;7.53;;;5.50;;
15102;SDS011;7652;53.584;9.998;2022-12-18T05:21:41;7.67;;;4.93;;
15102;SDS011;7652;53.584;9.998;2022-12-18T05:24:44;6.60;;;4.40;;
15102;SDS011;7652;53.584;9.998;2022-12-18T05:27:47;7.83;;;5.00;;
15102;SDS011;7652;53.584;9.998;2022-12-18T05:30:51;8.93;;;4.37;;
15102;SDS011;7652;53.584;9.998;2022-12-18T05:33:59;8.10;;;4.53;;
15102;SDS011;7652;53.584;9.998;2022-12-18T05:37:02;6.17;;;4.93;;
15102;SDS011;7652;53.584;9.998;2022-12-18T05:40:06;7.10;;;4.50;;
15102;SDS011;7652;53.584;9.998;2022-12-18T05:43:10;11.17;;;5.50;;
15102;SDS011;7652;53.584;9.998;2022-12-18T05:46:21;9.47;;;4.93;;
15102;SDS011;7652;53.584;9.998;2022-12-18T05:49:27;10.63;;;5.03;;
15102;SDS011;7652;53.584;9.998;2022-12-18T05:52:30;10.17;;;4.83;;
15102;SDS011;7652;53.584;9.998;2022-12-18T05:55:33;8.20;;;5.10;;
15102;SDS011;7652;53.584;9.998;2022-12-18T05:58:37;9.10;;;5.00;;
15102;SDS011;7652;53.584;9.998;2022-12-18T06:01:40;10.77;;;5.13;;
15102;SDS011;7652;53.584;9.998;2022-12-18T06:04:46;8.93;;;4.67;;
15102;SDS011;7652;53.584;9.998;2022-12-18T06:07:49;8.20;;;5.13;;
15102;SDS011;7652;53.584;9.998;2022-12-18T06:10:52;8.17;;;4.53;;
15102;SDS011;7652;53.584;9.998;2022-12-18T06:13:56;6.13;;;4.50;;
15102;SDS011;7652;53.584;9.998;2022-12-18T06:17:01;11.03;;;5.00;;
15102;SDS011;7652;53.584;9.998;2022-12-18T06:20:06;7.27;;;4.00;;
15102;SDS011;7652;53.584;9.998;2022-12-18T06:23:09;9.83;;;5.50;;
15102;SDS011;7652;53.584;9.998;2022-12-18T06:26:13;7.37;;;4.97;;
15102;SDS011;7652;53.584;9.998;2022-12-18T06:29:16;8.47;;;5.40;;
15102;SDS011;7652;53.584;9.998;2022-12-18T06:32:19;10.00;;;5.57;;
15102;SDS011;7652;53.584;9.998;2022-12-18T06:35:23;9.83;;;5.17;;
15102;SDS011;7652;53.584;9.998;2022-12-18T06:38:26;8.77;;;4.97;;
15102;SDS011;7652;53.584;9.998;2022-12-18T06:41:30;11.37;;;5.13;;
15102;SDS011;7652;53.584;9.998;2022-12-18T06:44:33;10.33;;;6.13;;
15102;SDS011;7652;53.584;9.998;2022-12-18T06:47:36;10.27;;;4.80;;
15102;SDS011;7652;53.584;9.998;2022-12-18T06:50:42;10.27;;;6.20;;
15102;SDS011;7652;53.584;9.998;2022-12-18T06:53:46;9.13;;;5.53;;
15102;SDS011;7652;53.584;9.998;2022-12-18T06:56:49;6.50;;;4.70;;
15102;SDS011;7652;53.584;9.998;2022-12-18T06:59:52;9.93;;;5.50;;
15102;SDS011;7652;53.584;9.998;2022-12-18T07:02:55;9.90;;;5.80;;
15102;SDS011;7652;53.584;9.998;2022-12-18T07:05:59;10.43;;;5.27;;
15102;SDS011;7652;53.584;9.998;2022-12-18T07:09:02;9.67;;;4.90;;
15102;SDS011;7652;53.584;9.998;2022-12-18T07:12:05;10.77;;;6.27;;
15102;SDS011;7652;53.584;9.998;2022-12-18T07:15:09;9.70;;;5.10;;
15102;SDS011;7652;53.584;9.998;2022-12-18T07:18:12;9.57;;;5.37;;
15102;SDS011;7652;53.584;9.998;2022-12-18T07:21:17;7.23;;;4.80;;
15102;SDS011;7652;53.584;9.998;2022-12-18T07:24:21;9.60;;;5.40;;
15102;SDS011;7652;53.584;9.998;2022-12-18T07:27:24;11.20;;;5.63;;
15102;SDS011;7652;53.584;9.998;2022-12-18T07:30:28;9.47;;;5.83;;
15102;SDS011;7652;53.584;9.998;2022-12-18T07:33:31;7.77;;;5.33;;
15102;SDS011;7652;53.584;9.998;2022-12-18T07:36:36;9.90;;;5.03;;
15102;SDS011;7652;53.584;9.998;2022-12-18T07:39:39;9.33;;;5.40;;
15102;SDS011;7652;53.584;9.998;2022-12-18T07:42:42;6.87;;;5.30;;
15102;SDS011;7652;53.584;9.998;2022-12-18T07:45:45;13.53;;;6.03;;
15102;SDS011;7652;53.584;9.998;2022-12-18T07:48:51;9.67;;;5.87;;
15102;SDS011;7652;53.584;9.998;2022-12-18T07:51:55;10.67;;;5.13;;
15102;SDS011;7652;53.584;9.998;2022-12-18T07:54:59;8.20;;;4.97;;
15102;SDS011;7652;53.584;9.998;2022-12-18T07:58:03;8.47;;;4.97;;
15102;SDS011;7652;53.584;9.998;2022-12-18T08:01:07;8.93;;;5.73;;
15102;SDS011;7652;53.584;9.998;2022-12-18T08:04:12;7.83;;;5.43;;
15102;SDS011;7652;53.584;9.998;2022-12-18T08:07:16;6.63;;;5.00;;
15102;SDS011;7652;53.584;9.998;2022-12-18T08:10:19;9.90;;;5.70;;
15102;SDS011;7652;53.584;9.998;2022-12-18T08:13:23;11.13;;;5.90;;
15102;SDS011;7652;53.584;9.998;2022-12-18T08:16:27;11.60;;;6.30;;
15102;SDS011;7652;53.584;9.998;2022-12-18T08:19:31;8.07;;;4.83;;
15102;SDS011;7652;53.584;9.998;2022-12-18T08:22:39;8.87;;;5.43;;
15102;SDS011;7652;53.584;9.998;2022-12-18T08:25:42;13.20;;;5.87;;
15102;SDS011;7652;53.584;9.998;2022-12-18T08:28:45;11.60;;;6.10;;
15102;SDS011;7652;53.584;9.998;2022-12-18T08:31:49;10.13;;;6.43;;
15102;SDS011;7652;53.584;9.998;2022-12-18T08:34:52;10.60;;;5.63;;
15102;SDS011;7652;53.584;9.998;2022-12-18T08:37:57;9.73;;;5.97;;
15102;SDS011;7652;53.584;9.998;2022-12-18T08:41:00;12.73;;;6.03;;
15102;SDS011;7652;53.584;9.998;2022-12-18T08:44:04;11.87;;;6.53;;
15102;SDS011;7652;53.584;9.998;2022-12-18T08:47:24;12.10;;;6.07;;
15102;SDS011;7652;53.584;9.998;2022-12-18T08:50:27;8.97;;;5.90;;
15102;SDS011;7652;53.584;9.998;2022-12-18T08:53:32;9.47;;;6.23;;
15102;SDS011;7652;53.584;9.998;2022-12-18T08:56:36;10.67;;;6.27;;
15102;SDS011;7652;53.584;9.998;2022-12-18T08:59:39;9.47;;;5.97;;
15102;SDS011;7652;53.584;9.998;2022-12-18T09:02:42;9.30;;;5.50;;
15102;SDS011;7652;53.584;9.998;2022-12-18T09:05:45;10.23;;;5.37;;
15102;SDS011;7652;53.584;9.998;2022-12-18T09:08:50;9.57;;;6.30;;
15102;SDS011;7652;53.584;9.998;2022-12-18T09:11:53;12.07;;;6.10;;
15102;SDS011;7652;53.584;9.998;2022-12-18T09:14:56;9.43;;;5.50;;
15102;SDS011;7652;53.584;9.998;2022-12-18T09:17:59;13.37;;;6.47;;
15102;SDS011;7652;53.584;9.998;2022-12-18T09:21:07;16.10;;;7.10;;
15102;SDS011;7652;53.584;9.998;2022-12-18T09:24:13;9.83;;;5.17;;
15102;SDS011;7652;53.584;9.998;2022-12-18T09:27:16;12.83;;;6.90;;
15102;SDS011;7652;53.584;9.998;2022-12-18T09:30:19;10.60;;;6.57;;
15102;SDS011;7652;53.584;9.998;2022-12-18T09:33:22;9.37;;;6.10;;
15102;SDS011;7652;53.584;9.998;2022-12-18T09:36:26;9.80;;;5.97;;
15102;SDS011;7652;53.584;9.998;2022-12-18T09:39:30;10.30;;;6.63;;
15102;SDS011;7652;53.584;9.998;2022-12-18T09:42:33;9.30;;;6.17;;
15102;SDS011;7652;53.584;9.998;2022-12-18T09:45:40;11.03;;;6.13;;
15102;SDS011;7652;53.584;9.998;2022-12-18T09:48:47;11.50;;;5.87;;
15102;SDS011;7652;53.584;9.998;2022-12-18T09:51:54;11.03;;;5.77;;
15102;SDS011;7652;53.584;9.998;2022-12-18T09:55:05;8.67;;;6.10;;
15102;SDS011;7652;53.584;9.998;2022-12-18T09:58:14;10.90;;;5.63;;
15102;SDS011;7652;53.584;9.998;2022-12-18T10:01:21;9.20;;;6.60;;
15102;SDS011;7652;53.584;9.998;2022-12-18T10:04:25;11.43;;;6.17;;
15102;SDS011;7652;53.584;9.998;2022-12-18T10:07:37;10.10;;;6.37;;
15102;SDS011;7652;53.584;9.998;2022-12-18T10:10:55;15.13;;;6.90;;
15102;SDS011;7652;53.584;9.998;2022-12-18T10:14:05;10.70;;;6.37;;
15102;SDS011;7652;53.584;9.998;2022-12-18T10:17:14;9.77;;;5.80;;
15102;SDS011;7652;53.584;9.998;2022-12-18T10:20:27;10.27;;;5.93;;
15102;SDS011;7652;53.584;9.998;2022-12-18T10:23:37;10.00;;;5.90;;
15102;SDS011;7652;53.584;9.998;2022-12-18T10:26:50;9.70;;;5.80;;
15102;SDS011;7652;53.584;9.998;2022-12-18T10:29:55;9.23;;;5.90;;
15102;SDS011;7652;53.584;9.998;2022-12-18T10:33:00;13.63;;;5.83;;
15102;SDS011;7652;53.584;9.998;2022-12-18T10:36:03;12.03;;;6.33;;
15102;SDS011;7652;53.584;9.998;2022-12-18T10:39:13;11.23;;;6.30;;
15102;SDS011;7652;53.584;9.998;2022-12-18T10:42:19;10.77;;;5.63;;
15102;SDS011;7652;53.584;9.998;2022-12-18T10:45:22;7.83;;;5.47;;
15102;SDS011;7652;53.584;9.998;2022-12-18T10:48:25;12.43;;;6.20;;
15102;SDS011;7652;53.584;9.998;2022-12-18T10:51:29;12.90;;;6.60;;
15102;SDS011;7652;53.584;9.998;2022-12-18T10:54:35;9.10;;;6.37;;
15102;SDS011;7652;53.584;9.998;2022-12-18T10:57:41;10.93;;;6.60;;
15102;SDS011;7652;53.584;9.998;2022-12-18T11:00:44;12.50;;;6.53;;
15102;SDS011;7652;53.584;9.998;2022-12-18T11:03:58;11.83;;;6.53;;
15102;SDS011;7652;53.584;9.998;2022-12-18T11:07:04;11.73;;;6.00;;
15102;SDS011;7652;53.584;9.998;2022-12-18T11:10:14;8.70;;;5.80;;
15102;SDS011;7652;53.584;9.998;2022-12-18T11:13:21;13.63;;;6.17;;
15102;SDS011;7652;53.584;9.998;2022-12-18T11:16:26;13.40;;;7.13;;
15102;SDS011;7652;53.584;9.998;2022-12-18T11:19:32;9.47;;;6.10;;
15102;SDS011;7652;53.584;9.998;2022-12-18T11:22:36;13.70;;;5.97;;
15102;SDS011;7652;53.584;9.998;2022-12-18T11:25:40;9.50;;;6.40;;
15102;SDS011;7652;53.584;9.998;2022-12-18T11:29:07;11.33;;;6.47;;
15102;SDS011;7652;53.584;9.998;2022-12-18T11:32:23;14.90;;;6.90;;
15102;SDS011;7652;53.584;9.998;2022-12-18T11:35:34;12.47;;;6.23;;
15102;SDS011;7652;53.584;9.998;2022-12-18T11:38:42;10.13;;;6.10;;
15102;SDS011;7652;53.584;9.998;2022-12-18T11:41:49;8.87;;;5.83;;
15102;SDS011;7652;53.584;9.998;2022-12-18T11:45:23;10.67;;;6.33;;
15102;SDS011;7652;53.584;9.998;2022-12-18T11:48:30;8.83;;;6.00;;
15102;SDS011;7652;53.584;9.998;2022-12-18T11:51:41;10.33;;;6.20;;
15102;SDS011;7652;53.584;9.998;2022-12-18T11:54:51;10.23;;;6.53;;
15102;SDS011;7652;53.584;9.998;2022-12-18T11:57:57;10.77;;;6.53;;
15102;SDS011;7652;53.584;9.998;2022-12-18T12:01:12;10.43;;;6.67;;
15102;SDS011;7652;53.584;9.998;2022-12-18T12:04:28;10.60;;;6.30;;
15102;SDS011;7652;53.584;9.998;2022-12-18T12:07:44;11.47;;;6.60;;
15102;SDS011;7652;53.584;9.998;2022-12-18T12:10:56;12.67;;;7.20;;
15102;SDS011;7652;53.584;9.998;2022-12-18T12:14:09;10.20;;;6.47;;
15102;SDS011;7652;53.584;9.998;2022-12-18T12:17:36;11.53;;;6.00;;
15102;SDS011;7652;53.584;9.998;2022-12-18T12:20:47;11.30;;;6.83;;
15102;SDS011;7652;53.584;9.998;2022-12-18T12:23:58;10.97;;;6.67;;
15102;SDS011;7652;53.584;9.998;2022-12-18T12:27:09;9.33;;;5.97;;
15102;SDS011;7652;53.584;9.998;2022-12-18T12:30:20;8.10;;;5.80;;
15102;SDS011;7652;53.584;9.998;2022-12-18T12:33:29;9.33;;;5.67;;
15102;SDS011;7652;53.584;9.998;2022-12-18T12:36:42;9.90;;;6.17;;
15102;SDS011;7652;53.584;9.998;2022-12-18T12:39:55;8.90;;;6.23;;
15102;SDS011;7652;53.584;9.998;2022-12-18T12:42:59;10.43;;;6.70;;
15102;SDS011;7652;53.584;9.998;2022-12-18T12:46:17;10.57;;;6.17;;
15102;SDS011;7652;53.584;9.998;2022-12-18T12:49:26;14.93;;;7.73;;
15102;SDS011;7652;53.584;9.998;2022-12-18T12:52:41;12.13;;;7.20;;
15102;SDS011;7652;53.584;9.998;2022-12-18T12:55:48;14.63;;;7.63;;
15102;SDS011;7652;53.584;9.998;2022-12-18T12:58:54;11.47;;;7.03;;
15102;SDS011;7652;53.584;9.998;2022-12-18T13:02:04;10.50;;;6.47;;
15102;SDS011;7652;53.584;9.998;2022-12-18T13:05:18;10.90;;;7.40;;
15102;SDS011;7652;53.584;9.998;2022-12-18T13:08:28;12.77;;;6.37;;
15102;SDS011;7652;53.584;9.998;2022-12-18T13:11:38;12.83;;;7.23;;
15102;SDS011;7652;53.584;9.998;2022-12-18T13:15:11;15.87;;;6.63;;
15102;SDS011;7652;53.584;9.998;2022-12-18T13:18:23;13.10;;;7.23;;
15102;SDS011;7652;53.584;9.998;2022-12-18T13:21:29;12.47;;;7.47;;
15102;SDS011;7652;53.584;9.998;2022-12-18T13:24:34;13.10;;;7.23;;
15102;SDS011;7652;53.584;9.998;2022-12-18T13:31:13;12.87;;;7.57;;
15102;SDS011;7652;53.584;9.998;2022-12-18T13:34:17;13.03;;;6.83;;
15102;SDS011;7652;53.584;9.998;2022-12-18T13:37:38;16.27;;;7.67;;
15102;SDS011;7652;53.584;9.998;2022-12-18T13:40:54;15.53;;;7.07;;
15102;SDS011;7652;53.584;9.998;2022-12-18T13:44:09;16.90;;;7.10;;
15102;SDS011;7652;53.584;9.998;2022-12-18T13:47:24;13.70;;;6.93;;
15102;SDS011;7652;53.584;9.998;2022-12-18T13:50:29;15.40;;;6.97;;
15102;SDS011;7652;53.584;9.998;2022-12-18T13:53:38;14.80;;;7.43;;
15102;SDS011;7652;53.584;9.998;2022-12-18T13:56:46;17.13;;;7.33;;
15102;SDS011;7652;53.584;9.998;2022-12-18T13:59:50;16.57;;;7.93;;
15102;SDS011;7652;53.584;9.998;2022-12-18T14:02:54;14.47;;;7.27;;
15102;SDS011;7652;53.584;9.998;2022-12-18T14:06:04;13.50;;;7.40;;
15102;SDS011;7652;53.584;9.998;2022-12-18T14:09:13;13.47;;;6.90;;
15102;SDS011;7652;53.584;9.998;2022-12-18T14:12:22;12.67;;;6.83;;
15102;SDS011;7652;53.584;9.998;2022-12-18T14:15:46;14.37;;;7.83;;
15102;SDS011;7652;53.584;9.998;2022-12-18T14:18:52;12.90;;;7.17;;
15102;SDS011;7652;53.584;9.998;2022-12-18T14:22:12;18.33;;;7.10;;
15102;SDS011;7652;53.584;9.998;2022-12-18T14:25:20;13.40;;;7.37;;
15102;SDS011;7652;53.584;9.998;2022-12-18T14:28:25;16.00;;;7.50;;
15102;SDS011;7652;53.584;9.998;2022-12-18T14:31:28;14.30;;;7.57;;
15102;SDS011;7652;53.584;9.998;2022-12-18T14:34:33;15.43;;;7.30;;
15102;SDS011;7652;53.584;9.998;2022-12-18T14:37:36;13.90;;;7.17;;
15102;SDS011;7652;53.584;9.998;2022-12-18T14:40:40;17.37;;;7.50;;
15102;SDS011;7652;53.584;9.998;2022-12-18T14:43:44;17.43;;;7.07;;
15102;SDS011;7652;53.584;9.998;2022-12-18T14:46:49;14.53;;;7.47;;
15102;SDS011;7652;53.584;9.998;2022-12-18T14:49:53;15.33;;;7.47;;
15102;SDS011;7652;53.584;9.998;2022-12-18T14:52:56;14.87;;;7.33;;
15102;SDS011;7652;53.584;9.998;2022-12-18T14:56:01;15.23;;;8.43;;
15102;SDS011;7652;53.584;9.998;2022-12-18T14:59:06;16.53;;;8.67;;
15102;SDS011;7652;53.584;9.998;2022-12-18T15:02:25;13.97;;;8.20;;
15102;SDS011;7652;53.584;9.998;2022-12-18T15:05:30;16.73;;;8.03;;
15102;SDS011;7652;53.584;9.998;2022-12-18T15:08:35;17.37;;;7.93;;
15102;SDS011;7652;53.584;9.998;2022-12-18T15:11:46;18.10;;;8.00;;
15102;SDS011;7652;53.584;9.998;2022-12-18T15:14:49;16.33;;;8.57;;
15102;SDS011;7652;53.584;9.998;2022-12-18T15:17:56;18.33;;;8.57;;
15102;SDS011;7652;53.584;9.998;2022-12-18T15:21:08;16.67;;;8.77;;
15102;SDS011;7652;53.584;9.998;2022-12-18T15:24:16;17.23;;;8.53;;
15102;SDS011;7652;53.584;9.998;2022-12-18T15:27:26;16.97;;;8.27;;
15102;SDS011;7652;53.584;9.998;2022-12-18T15:30:31;19.07;;;8.50;;
15102;SDS011;7652;53.584;9.998;2022-12-18T15:33:34;13.80;;;8.03;;
15102;SDS011;7652;53.584;9.998;2022-12-18T15:36:40;18.40;;;8.70;;
15102;SDS011;7652;53.584;9.998;2022-12-18T15:39:43;19.50;;;8.57;;
15102;SDS011;7652;53.584;9.998;2022-12-18T15:42:47;22.87;;;9.07;;
15102;SDS011;7652;53.584;9.998;2022-12-18T15:46:21;17.97;;;8.07;;
15102;SDS011;7652;53.584;9.998;2022-12-18T15:49:25;15.10;;;9.03;;
15102;SDS011;7652;53.584;9.998;2022-12-18T15:52:28;19.77;;;9.53;;
15102;SDS011;7652;53.584;9.998;2022-12-18T15:55:34;17.97;;;7.87;;
15102;SDS011;7652;53.584;9.998;2022-12-18T15:59:04;15.57;;;7.60;;
15102;SDS011;7652;53.584;9.998;2022-12-18T16:02:14;16.73;;;8.03;;
15102;SDS011;7652;53.584;9.998;2022-12-18T16:05:20;18.50;;;8.70;;
15102;SDS011;7652;53.584;9.998;2022-12-18T16:08:25;14.50;;;7.33;;
15102;SDS011;7652;53.584;9.998;2022-12-18T16:11:29;20.23;;;8.93;;
15102;SDS011;7652;53.584;9.998;2022-12-18T16:14:41;17.40;;;7.37;;
15102;SDS011;7652;53.584;9.998;2022-12-18T16:17:45;17.63;;;8.70;;
15102;SDS011;7652;53.584;9.998;2022-12-18T16:20:49;16.97;;;8.00;;
15102;SDS011;7652;53.584;9.998;2022-12-18T16:23:52;16.17;;;8.37;;
15102;SDS011;7652;53.584;9.998;2022-12-18T16:26:55;19.87;;;8.43;;
15102;SDS011;7652;53.584;9.998;2022-12-18T16:30:02;16.90;;;8.50;;
15102;SDS011;7652;53.584;9.998;2022-12-18T16:33:06;13.90;;;7.63;;
15102;SDS011;7652;53.584;9.998;2022-12-18T16:36:10;14.87;;;7.90;;
15102;SDS011;7652;53.584;9.998;2022-12-18T16:39:13;15.37;;;7.43;;
15102;SDS011;7652;53.584;9.998;2022-12-18T16:42:17;18.00;;;8.80;;
15102;SDS011;7652;53.584;9.998;2022-12-18T16:45:22;16.53;;;8.57;;
15102;SDS011;7652;53.584;9.998;2022-12-18T16:48:25;19.17;;;8.80;;
15102;SDS011;7652;53.584;9.998;2022-12-18T16:51:33;20.67;;;8.30;;
15102;SDS011;7652;53.584;9.998;2022-12-18T16:54:36;16.80;;;7.97;;
15102;SDS011;7652;53.584;9.998;2022-12-18T16:57:39;18.23;;;8.10;;
15102;SDS011;7652;53.584;9.998;2022-12-18T17:00:43;19.67;;;8.43;;
15102;SDS011;7652;53.584;9.998;2022-12-18T17:03:50;16.07;;;8.17;;
15102;SDS011;7652;53.584;9.998;2022-12-18T17:06:54;18.63;;;8.27;;
15102;SDS011;7652;53.584;9.998;2022-12-18T17:09:57;17.23;;;8.10;;
15102;SDS011;7652;53.584;9.998;2022-12-18T17:13:00;15.63;;;7.63;;
15102;SDS011;7652;53.584;9.998;2022-12-18T17:16:05;17.93;;;8.70;;
15102;SDS011;7652;53.584;9.998;2022-12-18T17:19:10;17.87;;;8.67;;
15102;SDS011;7652;53.584;9.998;2022-12-18T17:22:17;18.73;;;8.40;;
15102;SDS011;7652;53.584;9.998;2022-12-18T17:25:20;14.67;;;7.60;;
15102;SDS011;7652;53.584;9.998;2022-12-18T17:28:25;15.37;;;8.13;;
15102;SDS011;7652;53.584;9.998;2022-12-18T17:31:30;18.47;;;8.60;;
15102;SDS011;7652;53.584;9.998;2022-12-18T17:34:35;16.13;;;8.40;;
15102;SDS011;7652;53.584;9.998;2022-12-18T17:37:38;15.63;;;8.23;;
15102;SDS011;7652;53.584;9.998;2022-12-18T17:40:41;14.40;;;6.93;;
15102;SDS011;7652;53.584;9.998;2022-12-18T17:43:49;17.30;;;8.37;;
15102;SDS011;7652;53.584;9.998;2022-12-18T17:46:54;17.73;;;7.77;;
15102;SDS011;7652;53.584;9.998;2022-12-18T17:49:57;13.47;;;7.43;;
15102;SDS011;7652;53.584;9.998;2022-12-18T17:53:00;20.73;;;8.90;;
15102;SDS011;7652;53.584;9.998;2022-12-18T17:56:04;17.00;;;8.30;;
15102;SDS011;7652;53.584;9.998;2022-12-18T17:59:08;17.53;;;7.97;;
15102;SDS011;7652;53.584;9.998;2022-12-18T18:02:12;14.87;;;8.23;;
15102;SDS011;7652;53.584;9.998;2022-12-18T18:05:16;10.57;;;7.00;;
15102;SDS011;7652;53.584;9.998;2022-12-18T18:08:19;14.20;;;7.40;;
15102;SDS011;7652;53.584;9.998;2022-12-18T18:11:22;26.07;;;10.50;;
15102;SDS011;7652;53.584;9.998;2022-12-18T18:14:43;14.87;;;8.40;;
15102;SDS011;7652;53.584;9.998;2022-12-18T18:17:48;13.67;;;7.73;;
15102;SDS011;7652;53.584;9.998;2022-12-18T18:20:51;15.33;;;7.27;;
15102;SDS011;7652;53.584;9.998;2022-12-18T18:23:57;15.30;;;7.43;;
15102;SDS011;7652;53.584;9.998;2022-12-18T18:27:02;14.37;;;7.73;;
15102;SDS011;7652;53.584;9.998;2022-12-18T18:30:06;15.77;;;7.30;;
15102;SDS011;7652;53.584;9.998;2022-12-18T18:33:11;15.57;;;8.33;;
15102;SDS011;7652;53.584;9.998;2022-12-18T18:36:14;13.70;;;7.37;;
15102;SDS011;7652;53.584;9.998;2022-12-18T18:39:17;12.00;;;6.70;;
15102;SDS011;7652;53.584;9.998;2022-12-18T18:42:21;16.40;;;7.37;;
15102;SDS011;7652;53.584;9.998;2022-12-18T18:45:24;12.00;;;7.00;;
15102;SDS011;7652;53.584;9.998;2022-12-18T18:48:29;14.87;;;6.33;;
15102;SDS011;7652;53.584;9.998;2022-12-18T18:51:36;14.27;;;7.53;;
15102;SDS011;7652;53.584;9.998;2022-12-18T18:54:39;11.63;;;6.80;;